createdAt,value
2018-06-16T00:02:59.894Z,15.21
2018-06-16T00:05:28.336Z,15.21
2018-06-16T00:07:56.928Z,15.18
2018-06-16T00:10:25.361Z,15.18
2018-06-16T00:12:53.883Z,15.21
2018-06-16T00:15:22.372Z,15.23
2018-06-16T00:17:50.836Z,15.22
2018-06-16T00:20:19.336Z,15.21
2018-06-16T00:22:47.852Z,15.24
2018-06-16T00:25:16.282Z,15.31
2018-06-16T00:27:44.780Z,15.34
2018-06-16T00:30:13.198Z,15.37
2018-06-16T00:32:41.720Z,15.38
2018-06-16T00:35:10.220Z,15.41
2018-06-16T00:37:38.800Z,15.44
2018-06-16T00:40:07.294Z,15.41
2018-06-16T00:42:35.853Z,15.38
2018-06-16T00:45:04.809Z,15.39
2018-06-16T00:47:33.340Z,15.35
2018-06-16T00:50:02.035Z,15.32
2018-06-16T00:52:30.565Z,15.33
2018-06-16T00:54:59.084Z,15.33
2018-06-16T00:57:38.940Z,15.31
2018-06-16T01:00:07.375Z,15.28
2018-06-16T01:02:35.914Z,15.29
2018-06-16T01:05:04.446Z,15.30
2018-06-16T01:07:33.745Z,15.31
2018-06-16T01:10:02.186Z,15.31
2018-06-16T01:12:30.764Z,15.31
2018-06-16T01:14:59.246Z,15.32
2018-06-16T01:17:27.716Z,15.32
2018-06-16T01:19:56.243Z,15.34
2018-06-16T01:22:24.731Z,15.34
2018-06-16T01:25:05.871Z,15.32
2018-06-16T01:27:34.317Z,15.36
2018-06-16T01:30:02.758Z,15.39
2018-06-16T01:32:31.200Z,15.38
2018-06-16T01:34:59.682Z,15.39
2018-06-16T01:37:28.188Z,15.43
2018-06-16T01:39:56.875Z,15.43
2018-06-16T01:42:25.321Z,15.44
2018-06-16T01:44:53.807Z,15.42
2018-06-16T01:47:22.215Z,15.41
2018-06-16T01:49:50.789Z,15.41
2018-06-16T01:52:19.262Z,15.39
2018-06-16T01:54:47.749Z,15.38
2018-06-16T01:57:16.216Z,15.40
2018-06-16T01:59:44.694Z,15.38
2018-06-16T02:02:20.863Z,15.40
2018-06-16T02:04:49.353Z,15.37
2018-06-16T02:07:36.297Z,15.34
2018-06-16T02:10:23.934Z,15.34
2018-06-16T02:13:09.885Z,15.32
2018-06-16T02:15:38.381Z,15.40
2018-06-16T02:18:06.865Z,15.63
2018-06-16T02:20:35.523Z,15.78
2018-06-16T02:23:03.997Z,15.82
2018-06-16T02:25:32.734Z,15.92
2018-06-16T02:28:01.301Z,16.04
2018-06-16T02:30:29.721Z,16.11
2018-06-16T02:32:58.264Z,16.13
2018-06-16T02:35:27.149Z,16.19
2018-06-16T02:37:56.211Z,16.21
2018-06-16T02:40:25.381Z,16.21
2018-06-16T02:42:54.324Z,16.17
2018-06-16T02:45:22.818Z,16.16
2018-06-16T02:47:51.301Z,16.18
2018-06-16T02:50:51.129Z,16.14
2018-06-16T02:53:19.675Z,16.11
2018-06-16T02:55:48.293Z,16.06
2018-06-16T02:58:16.762Z,16.03
2018-06-16T03:00:45.236Z,15.98
2018-06-16T03:03:13.804Z,15.97
2018-06-16T03:05:42.197Z,15.99
2018-06-16T03:08:10.739Z,15.94
2018-06-16T03:10:39.289Z,15.94
2018-06-16T03:13:08.609Z,16.00
2018-06-16T03:15:37.272Z,16.04
2018-06-16T03:18:05.858Z,16.04
2018-06-16T03:20:34.386Z,16.04
2018-06-16T03:23:02.922Z,16.02
2018-06-16T03:25:31.566Z,16.01
2018-06-16T03:28:00.001Z,16.03
2018-06-16T03:30:28.473Z,15.99
2018-06-16T03:32:57.075Z,16.03
2018-06-16T03:35:25.638Z,16.03
2018-06-16T03:38:11.933Z,16.05
2018-06-16T03:40:40.421Z,16.06
2018-06-16T03:43:10.424Z,16.05
2018-06-16T03:45:38.906Z,16.07
2018-06-16T03:48:07.337Z,16.07
2018-06-16T03:50:35.932Z,16.07
2018-06-16T03:53:04.503Z,16.08
2018-06-16T03:55:32.933Z,16.06
2018-06-16T03:58:01.432Z,16.07
2018-06-16T04:00:29.905Z,16.08
2018-06-16T04:02:58.396Z,16.10
2018-06-16T04:05:26.889Z,16.13
2018-06-16T04:07:55.372Z,16.14
2018-06-16T04:10:23.824Z,16.15
2018-06-16T04:12:52.308Z,16.18
2018-06-16T04:15:20.787Z,16.18
2018-06-16T04:17:49.339Z,16.18
2018-06-16T04:20:17.773Z,16.15
2018-06-16T04:22:46.232Z,16.14
2018-06-16T04:25:14.732Z,16.14
2018-06-16T04:27:43.294Z,16.16
2018-06-16T04:30:11.784Z,16.15
2018-06-16T04:32:40.201Z,16.17
2018-06-16T04:35:08.757Z,16.18
2018-06-16T04:37:37.182Z,16.21
2018-06-16T04:40:14.650Z,16.19
2018-06-16T04:42:43.118Z,16.20
2018-06-16T04:45:11.565Z,16.20
2018-06-16T04:47:40.068Z,16.18
2018-06-16T04:50:08.513Z,16.19
2018-06-16T04:52:37.009Z,16.20
2018-06-16T04:55:05.507Z,16.22
2018-06-16T04:57:34.075Z,16.27
2018-06-16T05:00:02.508Z,16.33
2018-06-16T05:02:31.038Z,16.40
2018-06-16T05:04:59.549Z,16.49
2018-06-16T05:11:15.704Z,16.73
2018-06-16T05:13:44.188Z,16.83
2018-06-16T05:16:12.728Z,16.92
2018-06-16T05:18:41.210Z,17.01
2018-06-16T05:21:09.677Z,17.09
2018-06-16T05:23:38.166Z,17.16
2018-06-16T05:26:06.669Z,17.18
2018-06-16T05:28:35.140Z,17.16
2018-06-16T05:31:03.618Z,17.21
2018-06-16T05:33:32.138Z,17.21
2018-06-16T05:36:00.584Z,17.22
2018-06-16T05:38:29.120Z,17.24
2018-06-16T05:40:57.585Z,17.30
2018-06-16T05:43:26.041Z,17.34
2018-06-16T05:45:54.607Z,17.45
2018-06-16T05:48:23.097Z,17.51
2018-06-16T05:50:51.688Z,17.51
2018-06-16T05:53:20.256Z,17.51
2018-06-16T05:56:16.056Z,17.49
2018-06-16T05:58:44.551Z,17.54
2018-06-16T06:01:13.099Z,17.54
2018-06-16T06:03:41.639Z,17.57
2018-06-16T06:06:10.125Z,17.63
2018-06-16T06:08:38.576Z,17.74
2018-06-16T06:11:07.014Z,17.83
2018-06-16T06:13:35.560Z,17.84
2018-06-16T06:16:04.057Z,17.91
2018-06-16T06:18:39.797Z,17.95
2018-06-16T06:21:08.368Z,18.00
2018-06-16T06:23:36.852Z,18.03
2018-06-16T06:26:05.450Z,18.06
2018-06-16T06:28:33.937Z,18.08
2018-06-16T06:31:02.361Z,18.11
2018-06-16T06:33:30.809Z,18.10
2018-06-16T06:35:59.321Z,18.06
2018-06-16T06:38:27.841Z,18.09
2018-06-16T06:40:56.313Z,18.14
2018-06-16T06:43:24.819Z,18.24
2018-06-16T06:45:54.431Z,18.33
2018-06-16T06:48:23.012Z,18.42
2018-06-16T06:50:51.500Z,18.53
2018-06-16T06:53:19.972Z,18.64
2018-06-16T06:55:48.385Z,18.79
2018-06-16T06:58:16.937Z,18.90
2018-06-16T07:00:45.461Z,18.93
2018-06-16T07:03:14.010Z,18.93
2018-06-16T07:05:50.174Z,18.97
2018-06-16T07:08:18.675Z,19.01
2018-06-16T07:10:47.299Z,19.08
2018-06-16T07:13:15.581Z,19.16
2018-06-16T07:15:44.107Z,19.17
2018-06-16T07:18:12.564Z,19.22
2018-06-16T07:20:54.491Z,19.33
2018-06-16T07:23:23.066Z,19.44
2018-06-16T07:25:51.536Z,19.53
2018-06-16T07:28:20.018Z,19.62
2018-06-16T07:30:48.501Z,19.71
2018-06-16T07:33:38.374Z,19.76
2018-06-16T07:36:06.821Z,19.86
2018-06-16T07:38:35.249Z,19.86
2018-06-16T07:41:03.838Z,19.84
2018-06-16T07:43:32.313Z,19.90
2018-06-16T07:46:00.788Z,19.93
2018-06-16T07:48:29.681Z,20.00
2018-06-16T07:50:58.524Z,20.08
2018-06-16T07:53:26.980Z,20.13
2018-06-16T07:55:55.524Z,20.24
2018-06-16T07:58:24.586Z,20.39
2018-06-16T08:01:33.645Z,20.54
2018-06-16T08:04:02.156Z,20.61
2018-06-16T08:06:30.727Z,20.75
2018-06-16T08:08:59.228Z,20.92
2018-06-16T08:11:27.812Z,21.03
2018-06-16T08:13:56.316Z,21.09
2018-06-16T08:16:24.768Z,21.22
2018-06-16T08:18:53.237Z,21.30
2018-06-16T08:21:21.725Z,21.26
2018-06-16T08:23:50.248Z,21.22
2018-06-16T08:26:18.791Z,21.27
2018-06-16T08:28:47.261Z,21.30
2018-06-16T08:31:15.754Z,21.36
2018-06-16T08:33:44.234Z,21.42
2018-06-16T08:36:12.838Z,21.45
2018-06-16T08:38:41.405Z,21.49
2018-06-16T08:41:09.881Z,21.40
2018-06-16T08:43:38.482Z,21.42
2018-06-16T08:46:06.960Z,21.55
2018-06-16T08:48:35.490Z,21.63
2018-06-16T08:51:03.941Z,21.70
2018-06-16T08:53:32.536Z,21.70
2018-06-16T08:56:01.084Z,21.79
2018-06-16T08:58:29.755Z,21.83
2018-06-16T09:00:58.294Z,21.85
2018-06-16T09:03:26.764Z,21.93
2018-06-16T09:05:55.615Z,22.14
2018-06-16T09:08:24.062Z,22.28
2018-06-16T09:10:52.598Z,22.47
2018-06-16T09:13:21.157Z,22.58
2018-06-16T09:15:49.665Z,22.57
2018-06-16T09:18:18.195Z,22.65
2018-06-16T09:20:46.735Z,22.75
2018-06-16T09:23:15.305Z,22.73
2018-06-16T09:25:57.799Z,22.73
2018-06-16T09:28:26.297Z,22.78
2018-06-16T09:30:54.848Z,22.85
2018-06-16T09:33:24.263Z,22.93
2018-06-16T09:35:52.776Z,22.98
2018-06-16T09:38:21.331Z,23.05
2018-06-16T09:40:49.819Z,23.15
2018-06-16T09:43:18.449Z,23.30
2018-06-16T09:45:46.881Z,23.58
2018-06-16T09:48:15.385Z,23.78
2018-06-16T09:50:43.870Z,23.90
2018-06-16T09:53:12.421Z,24.02
2018-06-16T09:55:41.017Z,24.42
2018-06-16T09:58:09.505Z,24.58
2018-06-16T10:00:46.313Z,24.69
2018-06-16T10:03:14.772Z,24.59
2018-06-16T10:05:43.338Z,24.47
2018-06-16T10:08:11.796Z,24.49
2018-06-16T10:10:41.317Z,24.40
2018-06-16T10:13:09.741Z,24.18
2018-06-16T10:15:38.325Z,24.16
2018-06-16T10:18:06.885Z,24.14
2018-06-16T10:20:35.332Z,24.06
2018-06-16T10:23:03.860Z,23.82
2018-06-16T10:25:32.314Z,23.60
2018-06-16T10:28:03.264Z,23.53
2018-06-16T10:30:31.744Z,23.33
2018-06-16T10:33:00.723Z,23.21
2018-06-16T10:35:29.162Z,23.26
2018-06-16T10:37:57.737Z,23.50
2018-06-16T10:40:26.799Z,23.85
2018-06-16T10:42:55.608Z,24.05
2018-06-16T10:45:24.078Z,23.90
2018-06-16T10:47:52.755Z,23.54
2018-06-16T10:50:21.334Z,23.18
2018-06-16T10:52:50.027Z,22.88
2018-06-16T10:55:18.502Z,22.63
2018-06-16T10:57:47.096Z,22.54
2018-06-16T11:00:15.568Z,22.55
2018-06-16T11:02:44.058Z,22.53
2018-06-16T11:05:12.621Z,22.87
2018-06-16T11:07:41.217Z,23.88
2018-06-16T11:10:09.714Z,24.70
2018-06-16T11:12:38.212Z,25.03
2018-06-16T11:15:06.821Z,25.33
2018-06-16T11:17:35.378Z,25.14
2018-06-16T11:20:04.555Z,24.97
2018-06-16T11:22:33.040Z,24.93
2018-06-16T11:25:01.473Z,25.06
2018-06-16T11:27:53.936Z,25.61
2018-06-16T11:30:22.411Z,26.27
2018-06-16T11:32:50.957Z,26.46
2018-06-16T11:35:19.471Z,26.35
2018-06-16T11:37:47.972Z,26.15
2018-06-16T11:40:16.425Z,25.95
2018-06-16T11:42:44.876Z,25.90
2018-06-16T11:45:26.632Z,26.03
2018-06-16T11:47:55.217Z,26.29
2018-06-16T11:50:23.751Z,26.74
2018-06-16T11:52:52.367Z,27.05
2018-06-16T11:55:20.872Z,27.36
2018-06-16T11:57:49.333Z,27.13
2018-06-16T12:00:17.781Z,26.43
2018-06-16T12:02:46.269Z,25.86
2018-06-16T12:05:14.706Z,25.43
2018-06-16T12:07:43.269Z,25.33
2018-06-16T12:10:11.799Z,25.31
2018-06-16T12:12:40.332Z,25.20
2018-06-16T12:15:08.808Z,25.20
2018-06-16T12:17:38.411Z,25.89
2018-06-16T12:20:06.890Z,26.51
2018-06-16T12:22:35.382Z,27.19
2018-06-16T12:25:04.006Z,27.48
2018-06-16T12:27:32.451Z,27.82
2018-06-16T12:30:01.231Z,28.63
2018-06-16T12:32:29.693Z,28.89
2018-06-16T12:34:58.198Z,28.72
2018-06-16T12:37:26.745Z,29.00
2018-06-16T12:39:55.186Z,29.44
2018-06-16T12:42:23.811Z,29.58
2018-06-16T12:44:52.328Z,29.44
2018-06-16T12:47:20.912Z,29.58
2018-06-16T12:49:53.225Z,29.75
2018-06-16T12:52:21.777Z,29.71
2018-06-16T12:54:50.249Z,29.80
2018-06-16T12:57:18.817Z,29.89
2018-06-16T12:59:47.303Z,29.94
2018-06-16T13:02:15.725Z,30.03
2018-06-16T13:04:44.372Z,30.42
2018-06-16T13:07:13.575Z,30.76
2018-06-16T13:09:42.128Z,30.78
2018-06-16T13:12:10.580Z,30.46
2018-06-16T13:14:39.026Z,30.48
2018-06-16T13:17:07.638Z,30.55
2018-06-16T13:19:36.507Z,30.54
2018-06-16T13:22:05.288Z,30.78
2018-06-16T13:24:33.947Z,30.20
2018-06-16T13:27:02.536Z,29.72
2018-06-16T13:29:31.073Z,29.93
2018-06-16T13:31:59.672Z,30.00
2018-06-16T13:34:28.243Z,30.28
2018-06-16T13:36:56.732Z,30.38
2018-06-16T13:39:25.160Z,30.51
2018-06-16T13:41:53.829Z,30.30
2018-06-16T13:44:22.665Z,30.23
2018-06-16T13:46:51.205Z,30.31
2018-06-16T13:49:20.310Z,29.60
2018-06-16T13:51:48.886Z,28.92
2018-06-16T13:54:17.458Z,28.19
2018-06-16T13:56:46.256Z,27.61
2018-06-16T13:59:14.772Z,27.49
2018-06-16T14:01:43.215Z,28.02
2018-06-16T14:04:11.697Z,28.29
2018-06-16T14:06:40.251Z,28.38
2018-06-16T14:09:09.989Z,28.42
2018-06-16T14:11:38.413Z,28.43
2018-06-16T14:14:07.142Z,28.65
2018-06-16T14:16:35.642Z,28.99
2018-06-16T14:19:04.094Z,28.32
2018-06-16T14:21:32.598Z,27.65
2018-06-16T14:24:01.018Z,27.30
2018-06-16T14:26:29.771Z,27.34
2018-06-16T14:28:58.261Z,27.87
2018-06-16T14:32:10.253Z,28.12
2018-06-16T14:34:39.443Z,27.72
2018-06-16T14:37:17.784Z,27.43
2018-06-16T14:39:46.281Z,27.15
2018-06-16T14:42:14.829Z,27.85
2018-06-16T14:44:43.341Z,28.14
2018-06-16T14:47:11.948Z,28.09
2018-06-16T14:49:40.473Z,27.68
2018-06-16T14:52:08.957Z,27.29
2018-06-16T14:54:38.356Z,27.25
2018-06-16T14:57:06.874Z,27.32
2018-06-16T14:59:35.467Z,26.88
2018-06-16T15:02:04.320Z,26.52
2018-06-16T15:04:32.912Z,26.13
2018-06-16T15:07:01.717Z,25.78
2018-06-16T15:09:31.372Z,25.52
2018-06-16T15:11:59.861Z,25.31
2018-06-16T15:14:28.350Z,25.13
2018-06-16T15:16:56.874Z,24.90
2018-06-16T15:19:25.478Z,24.73
2018-06-16T15:21:54.080Z,24.52
2018-06-16T15:24:22.656Z,24.37
2018-06-16T15:26:51.415Z,24.22
2018-06-16T15:29:19.856Z,24.03
2018-06-16T15:31:48.514Z,23.87
2018-06-16T15:34:17.012Z,23.78
2018-06-16T15:36:46.643Z,23.43
2018-06-16T15:39:15.161Z,22.99
2018-06-16T15:41:43.605Z,22.73
2018-06-16T15:44:12.034Z,22.63
2018-06-16T15:46:40.512Z,22.69
2018-06-16T15:49:09.048Z,22.75
2018-06-16T15:51:37.532Z,22.79
2018-06-16T15:54:06.009Z,22.83
2018-06-16T15:56:34.502Z,22.85
2018-06-16T15:59:03.032Z,22.77
2018-06-16T16:01:31.568Z,22.57
2018-06-16T16:04:00.037Z,22.08
2018-06-16T16:06:28.484Z,21.49
2018-06-16T16:08:57.109Z,20.86
2018-06-16T16:11:25.549Z,20.51
2018-06-16T16:13:54.483Z,20.41
2018-06-16T16:16:26.575Z,20.35
2018-06-16T16:18:55.066Z,20.29
2018-06-16T16:21:23.592Z,20.28
2018-06-16T16:23:52.022Z,20.28
2018-06-16T16:26:20.578Z,20.29
2018-06-16T16:28:51.368Z,20.25
2018-06-16T16:31:21.566Z,20.21
2018-06-16T16:33:50.368Z,20.22
2018-06-16T16:36:18.917Z,20.30
2018-06-16T16:38:47.367Z,20.44
2018-06-16T16:41:15.871Z,20.61
2018-06-16T16:43:44.413Z,20.87
2018-06-16T16:46:12.892Z,21.17
2018-06-16T16:48:41.323Z,21.35
2018-06-16T16:51:09.892Z,21.47
2018-06-16T16:53:38.342Z,21.54
2018-06-16T16:56:06.786Z,21.59
2018-06-16T16:58:35.387Z,21.55
2018-06-16T17:01:03.961Z,21.47
2018-06-16T17:03:32.431Z,21.40
2018-06-16T17:06:00.985Z,21.36
2018-06-16T17:08:29.447Z,21.37
2018-06-16T17:10:57.934Z,21.39
2018-06-16T17:13:26.422Z,21.43
2018-06-16T17:15:54.909Z,21.42
2018-06-16T17:18:23.373Z,21.42
2018-06-16T17:20:51.863Z,21.36
2018-06-16T17:23:23.046Z,21.30
2018-06-16T17:25:51.534Z,21.26
2018-06-16T17:28:20.094Z,21.25
2018-06-16T17:30:48.673Z,21.25
2018-06-16T17:33:17.193Z,21.26
2018-06-16T17:35:45.843Z,21.28
2018-06-16T17:38:37.794Z,21.35
2018-06-16T17:41:06.402Z,21.37
2018-06-16T17:43:44.672Z,21.36
2018-06-16T17:46:13.340Z,21.33
2018-06-16T17:48:41.758Z,21.25
2018-06-16T17:51:10.345Z,21.17
2018-06-16T17:53:38.895Z,21.08
2018-06-16T17:56:07.581Z,20.97
2018-06-16T17:58:36.073Z,20.89
2018-06-16T18:01:04.681Z,20.86
2018-06-16T18:03:34.258Z,20.82
2018-06-16T18:06:02.800Z,20.85
2018-06-16T18:08:31.357Z,20.89
2018-06-16T18:10:59.892Z,20.94
2018-06-16T18:13:28.405Z,21.04
2018-06-16T18:15:57.272Z,21.10
2018-06-16T18:18:25.717Z,21.18
2018-06-16T18:20:54.638Z,21.17
2018-06-16T18:23:23.234Z,21.18
2018-06-16T18:25:51.673Z,21.13
2018-06-16T18:28:20.192Z,21.05
2018-06-16T18:30:48.666Z,20.97
2018-06-16T18:33:17.161Z,20.93
2018-06-16T18:35:45.726Z,20.91
2018-06-16T18:38:14.165Z,20.90
2018-06-16T18:40:42.775Z,20.86
2018-06-16T18:43:13.179Z,20.84
2018-06-16T18:45:44.061Z,20.71
2018-06-16T18:48:15.969Z,20.59
2018-06-16T18:50:44.664Z,20.49
2018-06-16T18:53:13.125Z,20.37
2018-06-16T18:55:41.578Z,20.26
2018-06-16T18:58:10.140Z,20.18
2018-06-16T19:00:42.972Z,20.08
2018-06-16T19:03:13.067Z,20.05
2018-06-16T19:05:41.561Z,20.01
2018-06-16T19:08:10.124Z,19.98
2018-06-16T19:11:22.094Z,19.94
2018-06-16T19:13:50.624Z,19.90
2018-06-16T19:16:19.161Z,19.87
2018-06-16T19:18:47.713Z,19.85
2018-06-16T19:21:21.572Z,19.81
2018-06-16T19:23:50.274Z,19.77
2018-06-16T19:26:18.772Z,19.71
2018-06-16T19:28:47.205Z,19.62
2018-06-16T19:31:18.085Z,19.55
2018-06-16T19:34:12.294Z,19.49
2018-06-16T19:47:01.599Z,19.18
2018-06-16T19:49:30.178Z,19.19
2018-06-16T19:52:11.705Z,19.19
2018-06-16T19:54:40.609Z,19.17
2018-06-16T19:57:09.550Z,19.15
2018-06-16T19:59:38.166Z,19.13
2018-06-16T20:02:07.095Z,19.11
2018-06-16T20:04:35.772Z,19.05
2018-06-16T20:07:19.767Z,19.01
2018-06-16T20:09:48.256Z,18.97
2018-06-16T20:12:16.863Z,18.95
2018-06-16T20:14:45.327Z,18.95
2018-06-16T20:17:14.091Z,18.93
2018-06-16T20:19:42.634Z,18.92
2018-06-16T20:22:11.179Z,18.92
2018-06-16T20:24:39.782Z,18.92
2018-06-16T20:27:08.542Z,18.89
2018-06-16T20:29:37.192Z,18.84
2018-06-16T20:32:05.912Z,18.79
2018-06-16T20:34:34.521Z,18.75
2018-06-16T20:37:03.149Z,18.69
2018-06-16T20:39:31.614Z,18.62
2018-06-16T20:42:00.168Z,18.50
2018-06-16T20:44:28.874Z,18.43
2018-06-16T20:47:06.965Z,18.37
2018-06-16T20:49:35.433Z,18.29
2018-06-16T20:52:04.059Z,18.20
2018-06-16T20:54:32.595Z,18.14
2018-06-16T20:57:01.069Z,18.07
2018-06-16T20:59:29.529Z,18.01
2018-06-16T21:01:58.025Z,18.00
2018-06-16T21:04:26.526Z,17.90
2018-06-16T21:06:55.135Z,17.81
2018-06-16T21:09:23.694Z,17.74
2018-06-16T21:11:52.285Z,17.68
2018-06-16T21:14:20.850Z,17.61
2018-06-16T21:16:49.358Z,17.55
2018-06-16T21:19:17.836Z,17.41
2018-06-16T21:21:46.431Z,17.36
2018-06-16T21:24:14.993Z,17.27
2018-06-16T21:26:43.471Z,17.14
2018-06-16T21:29:11.986Z,17.05
2018-06-16T21:31:40.529Z,16.96
2018-06-16T21:34:08.966Z,16.84
2018-06-16T21:36:37.524Z,16.77
2018-06-16T21:39:07.644Z,16.68
2018-06-16T21:41:36.222Z,16.57
2018-06-16T21:44:04.811Z,16.47
2018-06-16T21:46:33.314Z,16.38
2018-06-16T21:49:02.498Z,16.32
2018-06-16T21:51:31.156Z,16.26
2018-06-16T21:53:59.845Z,16.21
2018-06-16T21:56:28.420Z,16.15
2018-06-16T21:58:57.011Z,16.10
2018-06-16T22:01:31.767Z,16.03
2018-06-16T22:04:00.646Z,15.94
2018-06-16T22:06:29.156Z,15.88
2018-06-16T22:08:58.429Z,15.80
2018-06-16T22:11:27.085Z,15.72
2018-06-16T22:13:55.564Z,15.65
2018-06-16T22:16:24.070Z,15.62
2018-06-16T22:18:52.703Z,15.60
2018-06-16T22:21:22.158Z,15.54
2018-06-16T22:23:50.618Z,15.43
2018-06-16T22:26:19.112Z,15.40
2018-06-16T22:28:47.631Z,15.40
2018-06-16T22:31:16.649Z,15.38
2018-06-16T22:33:45.178Z,15.35
2018-06-16T22:36:13.806Z,15.27
2018-06-16T22:39:16.923Z,15.24
2018-06-16T22:41:45.773Z,15.33
2018-06-16T22:44:14.336Z,15.43
2018-06-16T22:46:42.896Z,15.58
2018-06-16T22:49:11.384Z,15.70
2018-06-16T22:51:40.762Z,15.77
2018-06-16T22:54:09.732Z,15.88
2018-06-16T22:56:38.193Z,15.89
2018-06-16T22:59:06.673Z,15.85
2018-06-16T23:01:35.283Z,15.81
2018-06-16T23:04:03.829Z,15.84
2018-06-16T23:06:32.499Z,15.83
2018-06-16T23:09:01.009Z,15.78
2018-06-16T23:11:29.558Z,15.75
2018-06-16T23:13:58.034Z,15.72
2018-06-16T23:16:26.523Z,15.66
2018-06-16T23:18:55.369Z,15.66
2018-06-16T23:21:23.905Z,15.60
2018-06-16T23:23:52.420Z,15.57
2018-06-16T23:26:25.681Z,15.54
2018-06-16T23:28:54.148Z,15.52
2018-06-16T23:31:22.817Z,15.46
2018-06-16T23:33:51.254Z,15.45
2018-06-16T23:36:19.716Z,15.44
2018-06-16T23:38:48.177Z,15.38
2018-06-16T23:41:16.673Z,15.34
2018-06-16T23:43:45.215Z,15.30
2018-06-16T23:46:13.837Z,15.27
2018-06-16T23:48:42.261Z,15.29
2018-06-16T23:51:10.704Z,15.32
2018-06-16T23:53:39.174Z,15.38
2018-06-16T23:56:07.718Z,15.38
2018-06-16T23:58:37.161Z,15.44
